Terminal Aerodrome Forecast
Issued by NWS

Home | Current Version | Previous Version | Graphics & Text | Print | Product List | Glossary On
Versions: 1 2 3 4 5 6 7 8 9 10 11 12 13 14 15 16 17
000
FTUS43 KBIS 231600 AAB
TAFJMS
TAF AMD
KJMS 231600Z 2316/2412 VRB12G22KT P6SM -TSRA SCT015 BKN030CB
      TEMPO 2316/2318 VRB25G40KT 3SM +TSRA BKN015 OVC025CB
     FM231800 19015G25KT P6SM -SHRA VCTS BKN040CB
      TEMPO 2318/2320 4SM -TSRA OVC025CB
     FM232000 28013G21KT P6SM SCT035
     FM240200 28009KT P6SM SKC=

USA.gov is the U.S. government's official web portal to all federal, state and local government web resources and services.